Ana Sayfa
METAR-TAF:

METAR-TAF

Havaalanları :

Cayo Coco, Küba

Enlem: 22-27-40N, Boylam: 078-19-42W, yükseklik: 4 m

Güncel hava durumu gözlemi

Rapor saat 06:50 UTC de 1 saat ve 11 dakika önce yapıldı.
Rüzgar doğudan 9 kt, doğu/kuzeydoğu ve güneydoğu arasında değişken
Sıcaklık 29°C
Nem 84%
Basınç 1016 hPa
Görüş mesafesi: 9000 m
2000 ft yükseklikte parçalı bulutlu

METAR: MUCC 220650Z 10009KT 070V130 9000 SCT020 29/26 Q1016

Saat: 04:01 (08:01 UTC)

Tahmin

Rapor saat 05:00 UTC de 3 saat ve 1 dakika önce yapıldı.
Ayın 22'si saat 06 UTC'den ayın 23'si saat 06 UTC'ye kadar geçerli Tahmin
Rüzgar doğudan 12 kt
Görüş mesafesi: 9000 m
2000 ft yükseklikte parçalı bulutlu
Geçici
ayın 22'si saat 06 UTC'den ayın 22'si saat 09 UTC'ye kadar
2000 ft yükseklikte parçalı çok bulutlu

TAF: MUCC 220500Z 2206/2306 10012KT 9000 SCT020 TEMPO 2206/2209 BKN020

4.000'den fazla havaalanı için hava durumu gözlemleri ve tahminleri (METAR ve TAF raporları).

Kullanılabilir istasyonlar harita üzerinde sarı ve kırmızı noktalarla gösterilir.

İstasyonun adını görmek için fareyi noktanın üzerinde gezdirin.

Sonrasında hava gözlem ve tahminlerini görmek için tıklayın.

Haritayı değiştirmek için: yaklaştırmak için siyah artı işaretli yeşil düğmeye ve uzaklaştırmak için de eksi işaretli düğmeye hızla tıklayın; bitişik haritalar için yeşil okları kullanın.


METAR-TAF: